Time;durP1;ratioP1;P1;durP2;ratioP2;P2;SDS_P1;SDS_P2;PMS_P1;PMS_P2;Temp;Humidity;BMP_temperature;BMP_pressure;BME280_temperature;BME280_humidity;BME280_pressure;Samples;Min_cycle;Max_cycle;Signal;HPM_P1;HPM_P2
2023/11/03 00:02:22;;;;;;;4.30;2.13;;;14.10;94.30;;;;;;4998623;28;20474;-71
2023/11/03 00:04:47;;;;;;;4.13;1.97;;;14.10;94.30;;;;;;4984673;28;20460;-72
2023/11/03 00:07:14;;;;;;;3.20;1.93;;;14.10;94.30;;;;;;4992046;28;20444;-71
2023/11/03 00:09:40;;;;;;;3.37;1.97;;;14.10;94.40;;;;;;4985482;28;20447;-71
2023/11/03 00:12:07;;;;;;;2.70;1.97;;;14.10;94.30;;;;;;5007847;28;20455;-71
2023/11/03 00:14:37;;;;;;;2.50;1.47;;;14.00;94.20;;;;;;4976883;28;20968;-71
2023/11/03 00:17:06;;;;;;;3.20;1.90;;;14.00;94.30;;;;;;5020912;28;21329;-71
2023/11/03 00:19:33;;;;;;;3.73;1.73;;;14.00;94.30;;;;;;4994806;28;20439;-71
2023/11/03 00:22:03;;;;;;;3.73;2.00;;;14.10;94.40;;;;;;4978274;28;20565;-71
2023/11/03 00:24:29;;;;;;;3.23;1.83;;;14.00;94.20;;;;;;4996679;28;20974;-72
2023/11/03 00:26:55;;;;;;;4.40;1.90;;;14.00;94.20;;;;;;5016795;28;20435;-71
2023/11/03 00:29:22;;;;;;;4.83;1.87;;;14.00;94.10;;;;;;4983803;28;20195;-71
2023/11/03 00:31:52;;;;;;;5.20;2.10;;;14.00;94.00;;;;;;5008645;28;21128;-71
2023/11/03 00:34:22;;;;;;;3.93;2.00;;;14.00;94.10;;;;;;5001010;28;20498;-71
2023/11/03 00:36:49;;;;;;;7.37;2.10;;;14.00;94.20;;;;;;5011697;28;20434;-71
2023/11/03 00:39:18;;;;;;;3.70;2.00;;;14.00;94.10;;;;;;4978517;28;20435;-70
2023/11/03 00:41:47;;;;;;;2.30;1.87;;;14.00;94.10;;;;;;5001744;28;21179;-71
2023/11/03 00:44:19;;;;;;;3.40;2.00;;;14.00;94.10;;;;;;5019811;28;20482;-71
2023/11/03 00:46:49;;;;;;;2.97;2.07;;;14.00;94.00;;;;;;4992184;28;20786;-71
2023/11/03 00:49:19;;;;;;;2.33;1.87;;;14.00;94.00;;;;;;4989594;28;20439;-71
2023/11/03 00:51:46;;;;;;;2.47;1.87;;;14.00;93.90;;;;;;4993681;28;20974;-71
2023/11/03 00:54:12;;;;;;;4.27;2.00;;;14.00;93.90;;;;;;4979762;28;20518;-71
2023/11/03 00:56:41;;;;;;;5.53;1.80;;;14.00;93.90;;;;;;4978139;28;20449;-71
2023/11/03 00:59:07;;;;;;;3.63;1.63;;;14.00;94.00;;;;;;4994381;28;20459;-71
2023/11/03 01:01:36;;;;;;;4.83;1.73;;;14.00;93.90;;;;;;4960753;28;20497;-71
2023/11/03 01:04:05;;;;;;;3.77;2.30;;;14.00;93.90;;;;;;4987720;28;20431;-71
2023/11/03 01:06:31;;;;;;;3.27;1.90;;;14.00;93.80;;;;;;4977020;28;20475;-71
2023/11/03 01:08:57;;;;;;;2.97;1.63;;;14.00;93.70;;;;;;4979175;28;20431;-71
2023/11/03 01:11:23;;;;;;;2.33;1.50;;;14.00;93.70;;;;;;4994174;28;20454;-71
2023/11/03 01:13:56;;;;;;;3.57;1.50;;;14.00;93.70;;;;;;4977899;28;20211;-71
2023/11/03 01:16:22;;;;;;;4.10;1.93;;;14.00;93.70;;;;;;4994046;28;20461;-71
2023/11/03 01:18:49;;;;;;;3.63;1.60;;;13.90;93.70;;;;;;4990451;28;20432;-71
2023/11/03 01:21:16;;;;;;;2.80;2.00;;;13.90;93.70;;;;;;5014830;28;20446;-71
2023/11/03 01:23:49;;;;;;;2.80;1.73;;;13.90;93.70;;;;;;4959651;28;20759;-71
2023/11/03 01:26:16;;;;;;;1.90;1.50;;;13.90;93.60;;;;;;4976065;28;20514;-71
2023/11/03 01:28:46;;;;;;;2.37;1.73;;;13.90;93.70;;;;;;4974758;28;20439;-71
2023/11/03 01:31:12;;;;;;;2.70;2.00;;;13.90;93.80;;;;;;4996581;28;20419;-71
2023/11/03 01:33:41;;;;;;;2.70;1.70;;;13.90;93.80;;;;;;4992588;28;20463;-71
2023/11/03 01:36:08;;;;;;;2.23;1.83;;;13.90;93.80;;;;;;4982260;28;20899;-71
2023/11/03 01:38:38;;;;;;;4.47;2.07;;;13.90;93.70;;;;;;4974117;28;20947;-71
2023/11/03 01:41:08;;;;;;;1.70;1.60;;;13.90;93.70;;;;;;4974516;28;20561;-71
2023/11/03 01:43:39;;;;;;;2.60;1.73;;;13.90;93.60;;;;;;4992760;28;20451;-71
2023/11/03 01:46:05;;;;;;;2.73;1.60;;;13.90;93.70;;;;;;5001630;28;20967;-71
2023/11/03 01:48:32;;;;;;;3.23;1.60;;;13.90;93.70;;;;;;4992880;28;20450;-71
2023/11/03 01:51:03;;;;;;;1.70;1.60;;;13.90;93.70;;;;;;4986477;28;20521;-72
2023/11/03 01:53:31;;;;;;;2.70;1.70;;;13.90;93.80;;;;;;4967037;28;21054;-71
2023/11/03 01:56:00;;;;;;;2.70;2.30;;;13.90;93.60;;;;;;4970035;28;20451;-71
2023/11/03 01:58:31;;;;;;;4.20;2.00;;;13.90;93.60;;;;;;5006942;28;20431;-71
2023/11/03 02:01:01;;;;;;;2.90;1.63;;;13.90;93.60;;;;;;4989017;28;20451;-71
2023/11/03 02:03:30;;;;;;;2.30;1.90;;;13.90;93.60;;;;;;4976803;28;20478;-71
2023/11/03 02:06:03;;;;;;;2.80;1.87;;;13.90;93.60;;;;;;4974313;28;20538;-71
2023/11/03 02:08:29;;;;;;;3.63;1.93;;;13.90;93.50;;;;;;5015815;28;20498;-71
2023/11/03 02:10:58;;;;;;;2.00;1.90;;;13.90;93.50;;;;;;4978338;28;21180;-71
2023/11/03 02:13:29;;;;;;;1.83;1.73;;;13.80;93.50;;;;;;4961272;28;20462;-71
2023/11/03 02:15:56;;;;;;;2.27;1.80;;;13.90;93.50;;;;;;5018707;28;20435;-71
2023/11/03 02:18:26;;;;;;;3.00;1.80;;;13.80;93.60;;;;;;4985837;28;20524;-71
2023/11/03 02:20:52;;;;;;;1.73;1.57;;;13.90;93.70;;;;;;5011614;28;20432;-71
2023/11/03 02:23:18;;;;;;;2.20;1.67;;;13.80;93.50;;;;;;5003391;28;20501;-71
2023/11/03 02:25:48;;;;;;;4.70;2.10;;;13.80;93.50;;;;;;4971112;28;20537;-72
2023/11/03 02:28:17;;;;;;;3.30;1.90;;;13.80;93.40;;;;;;5019799;28;20812;-71
2023/11/03 02:30:43;;;;;;;1.90;1.70;;;13.80;93.60;;;;;;4983787;28;20439;-71
2023/11/03 02:33:12;;;;;;;2.70;1.70;;;13.80;93.60;;;;;;4982440;28;20558;-71
2023/11/03 02:35:45;;;;;;;1.40;1.30;;;13.80;93.50;;;;;;4989819;28;20435;-72
2023/11/03 02:38:16;;;;;;;2.70;1.60;;;13.80;93.50;;;;;;4989712;28;20523;-72
2023/11/03 02:40:54;;;;;;;2.40;1.90;;;13.80;93.60;;;;;;5008532;28;20870;-71
2023/11/03 02:43:22;;;;;;;2.30;1.90;;;13.80;93.60;;;;;;4956827;28;21031;-71
2023/11/03 02:45:52;;;;;;;3.30;2.07;;;13.80;93.60;;;;;;4997562;28;20822;-71
2023/11/03 02:48:19;;;;;;;1.73;1.63;;;13.80;93.50;;;;;;4989619;28;20944;-71
2023/11/03 02:50:49;;;;;;;2.30;1.73;;;13.80;93.60;;;;;;4957770;28;21000;-71
2023/11/03 02:53:15;;;;;;;2.47;2.20;;;13.80;93.50;;;;;;4989555;28;20539;-71
2023/11/03 02:55:41;;;;;;;1.60;1.50;;;13.80;93.50;;;;;;4974131;28;20461;-71
2023/11/03 02:58:07;;;;;;;2.97;1.77;;;13.80;93.50;;;;;;4992298;28;20434;-71
2023/11/03 03:00:35;;;;;;;2.50;1.70;;;13.80;93.50;;;;;;4993757;28;20435;-71
2023/11/03 03:03:08;;;;;;;3.33;1.80;;;13.80;93.60;;;;;;4999244;28;20990;-71
2023/11/03 03:05:36;;;;;;;1.60;1.50;;;13.80;93.60;;;;;;4993801;28;20424;-71
2023/11/03 03:08:04;;;;;;;3.43;1.60;;;13.80;93.50;;;;;;5017298;28;20439;-71
2023/11/03 03:10:31;;;;;;;2.23;1.70;;;13.80;93.50;;;;;;4992507;28;20518;-72
2023/11/03 03:13:02;;;;;;;3.03;1.97;;;13.70;93.60;;;;;;4967935;28;20821;-71
2023/11/03 03:15:30;;;;;;;4.40;1.90;;;13.70;93.60;;;;;;4985059;28;20524;-71
2023/11/03 03:17:57;;;;;;;2.33;1.90;;;13.70;93.60;;;;;;4992827;28;20519;-71
2023/11/03 03:20:24;;;;;;;3.37;1.87;;;13.70;93.50;;;;;;5000346;28;20516;-72
2023/11/03 03:22:50;;;;;;;2.50;1.93;;;13.80;93.60;;;;;;5018733;28;20476;-71
2023/11/03 03:25:19;;;;;;;2.63;1.87;;;13.70;93.50;;;;;;4976840;28;20476;-72
2023/11/03 03:27:48;;;;;;;3.47;2.00;;;13.80;93.60;;;;;;5002826;28;20433;-71
2023/11/03 03:30:17;;;;;;;3.33;2.13;;;13.80;93.70;;;;;;4996705;28;20446;-72
2023/11/03 03:32:43;;;;;;;3.20;1.73;;;13.80;93.60;;;;;;4996772;28;20995;-72
2023/11/03 03:35:09;;;;;;;5.03;2.00;;;13.70;93.50;;;;;;4980206;28;20541;-72
2023/11/03 03:37:36;;;;;;;2.93;1.93;;;13.70;93.50;;;;;;4995890;28;20507;-71
2023/11/03 03:40:02;;;;;;;3.90;1.73;;;13.70;93.50;;;;;;4991499;28;21174;-71
2023/11/03 03:42:31;;;;;;;4.07;1.90;;;13.70;93.50;;;;;;4975552;28;20472;-71
2023/11/03 03:44:59;;;;;;;2.80;1.90;;;13.70;93.40;;;;;;4987056;28;20525;-72
2023/11/03 03:47:27;;;;;;;3.30;2.07;;;13.70;93.40;;;;;;4987529;28;20474;-72
2023/11/03 03:49:58;;;;;;;3.80;1.90;;;13.70;93.40;;;;;;4991924;28;20443;-71
2023/11/03 03:52:24;;;;;;;1.97;1.77;;;13.70;93.50;;;;;;4984967;28;20468;-71
2023/11/03 03:54:57;;;;;;;3.23;1.87;;;13.70;93.40;;;;;;5003253;28;21034;-71
2023/11/03 03:57:25;;;;;;;5.60;1.97;;;13.70;93.30;;;;;;4994936;28;20488;-71
2023/11/03 03:59:54;;;;;;;2.07;1.87;;;13.70;93.40;;;;;;4968444;28;20887;-71
2023/11/03 04:02:20;;;;;;;2.50;2.30;;;13.70;93.40;;;;;;4975615;28;20797;-71
2023/11/03 04:04:46;;;;;;;2.83;2.30;;;13.70;93.50;;;;;;4977006;28;20986;-71
2023/11/03 04:07:14;;;;;;;3.73;2.23;;;13.70;93.60;;;;;;5021339;28;20453;-71
2023/11/03 04:09:41;;;;;;;3.50;2.00;;;13.70;93.70;;;;;;4995287;28;20415;-71
2023/11/03 04:12:07;;;;;;;2.13;2.03;;;13.70;93.50;;;;;;4983412;28;20455;-71
2023/11/03 04:14:35;;;;;;;2.30;2.10;;;13.70;93.60;;;;;;4992265;28;20480;-71
2023/11/03 04:17:03;;;;;;;3.60;2.10;;;13.70;93.50;;;;;;4977512;28;20510;-71
2023/11/03 04:19:33;;;;;;;4.00;2.17;;;13.70;93.40;;;;;;4993791;28;20533;-71
2023/11/03 04:21:59;;;;;;;6.43;2.73;;;13.70;93.60;;;;;;4991728;28;20478;-71
2023/11/03 04:24:25;;;;;;;3.27;2.40;;;13.60;93.50;;;;;;4982356;28;20798;-71
2023/11/03 04:26:54;;;;;;;3.83;2.77;;;13.70;93.60;;;;;;5012742;28;20429;-71
2023/11/03 04:29:23;;;;;;;4.30;2.63;;;13.60;93.50;;;;;;4994843;28;20493;-71
2023/11/03 04:31:52;;;;;;;3.03;2.30;;;13.70;93.50;;;;;;4986260;28;20554;-71
2023/11/03 04:34:18;;;;;;;2.40;2.20;;;13.60;93.50;;;;;;4986464;28;20435;-71
2023/11/03 04:36:47;;;;;;;3.93;2.80;;;13.60;93.60;;;;;;5012107;28;20423;-71
2023/11/03 04:39:19;;;;;;;3.50;2.20;;;13.60;93.50;;;;;;4970299;28;20451;-71
2023/11/03 04:41:46;;;;;;;3.17;2.40;;;13.60;93.60;;;;;;4985691;28;20478;-71
2023/11/03 04:44:19;;;;;;;6.10;2.57;;;13.60;93.60;;;;;;4994531;28;20861;-71
2023/11/03 04:46:45;;;;;;;2.90;2.60;;;13.60;93.60;;;;;;4999879;28;20493;-71
2023/11/03 04:49:18;;;;;;;3.70;2.93;;;13.60;93.60;;;;;;4998197;28;20452;-71
2023/11/03 04:51:44;;;;;;;5.23;2.70;;;13.60;93.60;;;;;;4992378;28;20832;-71
2023/11/03 04:54:10;;;;;;;3.47;2.60;;;13.60;93.60;;;;;;4988369;28;20442;-71
2023/11/03 04:56:39;;;;;;;2.73;1.90;;;13.60;93.60;;;;;;5011338;28;20445;-71
2023/11/03 04:59:05;;;;;;;4.10;2.50;;;13.60;93.60;;;;;;5008912;28;20522;-71
2023/11/03 05:01:33;;;;;;;5.00;2.50;;;13.60;93.60;;;;;;4990736;28;20465;-71
2023/11/03 05:04:00;;;;;;;3.33;2.43;;;13.60;93.60;;;;;;5004126;28;20508;-71
2023/11/03 05:06:26;;;;;;;5.00;2.53;;;13.60;93.60;;;;;;4995085;28;20463;-71
2023/11/03 05:08:52;;;;;;;6.63;3.37;;;13.50;93.60;;;;;;5003314;28;20430;-71
2023/11/03 05:11:18;;;;;;;4.27;2.20;;;13.50;93.70;;;;;;5020186;28;20419;-71
2023/11/03 05:13:44;;;;;;;4.27;2.80;;;13.50;93.70;;;;;;4984036;28;20450;-71
2023/11/03 05:16:12;;;;;;;6.80;2.27;;;13.50;93.70;;;;;;5013245;28;20989;-70
2023/11/03 05:18:38;;;;;;;3.80;2.60;;;13.50;93.70;;;;;;4997074;28;20752;-71
2023/11/03 05:21:04;;;;;;;7.03;2.73;;;13.50;93.70;;;;;;4993041;28;20441;-70
2023/11/03 05:23:33;;;;;;;4.57;2.43;;;13.50;93.60;;;;;;4992579;28;20475;-71
2023/11/03 05:26:00;;;;;;;2.93;2.60;;;13.50;93.60;;;;;;4995416;28;20482;-73
2023/11/03 05:28:25;;;;;;;4.80;3.40;;;13.50;93.60;;;;;;5021155;28;20426;-73
2023/11/03 05:30:51;;;;;;;5.23;3.13;;;13.50;93.70;;;;;;4979204;28;20847;-74
2023/11/03 05:33:17;;;;;;;3.67;2.23;;;13.50;93.70;;;;;;4986944;28;20294;-74
2023/11/03 05:35:46;;;;;;;4.47;2.90;;;13.50;93.80;;;;;;4986995;28;20533;-73
2023/11/03 05:38:12;;;;;;;2.90;2.20;;;13.50;93.80;;;;;;5002932;28;20452;-73
2023/11/03 05:40:45;;;;;;;4.87;3.00;;;13.50;93.80;;;;;;5020770;28;20440;-74
2023/11/03 05:43:12;;;;;;;3.83;2.30;;;13.50;93.80;;;;;;4983849;28;20561;-75
2023/11/03 05:45:38;;;;;;;3.77;2.60;;;13.50;93.80;;;;;;4998009;28;20465;-75
2023/11/03 05:48:05;;;;;;;4.63;3.20;;;13.50;93.80;;;;;;4987465;28;20441;-74
2023/11/03 05:50:31;;;;;;;2.70;2.37;;;13.50;93.80;;;;;;4986761;28;20424;-73
2023/11/03 05:52:58;;;;;;;6.50;2.70;;;13.50;93.80;;;;;;4986747;28;20449;-72
2023/11/03 05:55:24;;;;;;;5.20;2.50;;;13.50;93.80;;;;;;5020202;28;20433;-75
2023/11/03 05:57:50;;;;;;;8.13;2.70;;;13.50;93.80;;;;;;4985799;28;20973;-72
2023/11/03 06:00:21;;;;;;;2.60;2.40;;;13.50;93.80;;;;;;4970348;28;21100;-72
2023/11/03 06:02:52;;;;;;;5.57;3.10;;;13.50;93.70;;;;;;5020257;28;20477;-72
2023/11/03 06:05:21;;;;;;;5.27;2.80;;;13.50;93.80;;;;;;5020433;28;20466;-72
2023/11/03 06:07:50;;;;;;;2.80;2.40;;;13.50;93.70;;;;;;5018999;28;20529;-72
2023/11/03 06:10:16;;;;;;;4.83;2.13;;;13.50;93.70;;;;;;5001874;28;20997;-72
2023/11/03 06:12:46;;;;;;;6.37;3.00;;;13.40;93.80;;;;;;5002966;28;20692;-72
2023/11/03 06:15:15;;;;;;;7.83;3.03;;;13.50;93.90;;;;;;4984034;28;20429;-71
2023/11/03 06:17:42;;;;;;;4.73;3.07;;;13.40;93.80;;;;;;5018868;28;20425;-70
2023/11/03 06:20:16;;;;;;;3.43;2.63;;;13.40;93.80;;;;;;4997535;28;20453;-71
2023/11/03 06:22:44;;;;;;;6.10;2.50;;;13.40;93.90;;;;;;5002198;28;20488;-71
2023/11/03 06:25:11;;;;;;;5.23;3.30;;;13.40;93.90;;;;;;5021821;28;20465;-69
2023/11/03 06:27:39;;;;;;;4.10;2.40;;;13.50;93.90;;;;;;5003665;28;20427;-71
2023/11/03 06:30:06;;;;;;;4.47;2.47;;;13.50;93.90;;;;;;5003197;28;20423;-74
2023/11/03 06:32:32;;;;;;;3.70;2.37;;;13.40;93.90;;;;;;4988306;28;20992;-73
2023/11/03 06:34:58;;;;;;;4.30;2.10;;;13.50;94.00;;;;;;5002987;28;20519;-73
2023/11/03 06:37:24;;;;;;;5.00;2.57;;;13.50;94.00;;;;;;5019305;28;20466;-73
2023/11/03 06:39:53;;;;;;;3.40;2.33;;;13.50;94.00;;;;;;5005482;28;20436;-74
2023/11/03 06:42:24;;;;;;;3.77;2.70;;;13.50;94.00;;;;;;4988572;28;20842;-74
2023/11/03 06:44:57;;;;;;;2.47;2.23;;;13.50;94.10;;;;;;5023096;28;20454;-72
2023/11/03 06:47:23;;;;;;;3.83;2.10;;;13.50;94.00;;;;;;4969678;28;20453;-73
2023/11/03 06:49:54;;;;;;;5.80;2.80;;;13.50;94.10;;;;;;4989163;28;20957;-73
2023/11/03 06:52:20;;;;;;;2.40;2.00;;;13.50;94.10;;;;;;4990358;28;20545;-73
2023/11/03 06:54:46;;;;;;;4.50;2.53;;;13.40;94.10;;;;;;5015576;28;20492;-74
2023/11/03 06:57:15;;;;;;;5.87;3.20;;;13.40;94.50;;;;;;5004440;28;20701;-74
2023/11/03 06:59:44;;;;;;;10.97;2.80;;;13.40;94.10;;;;;;4987831;28;20441;-73
2023/11/03 07:02:13;;;;;;;3.53;2.93;;;13.40;94.10;;;;;;5015301;28;20496;-74
2023/11/03 07:04:40;;;;;;;5.00;3.13;;;13.40;94.50;;;;;;4989112;28;20519;-74
2023/11/03 07:07:09;;;;;;;4.80;2.70;;;13.40;94.20;;;;;;4989474;28;20525;-73
2023/11/03 07:09:35;;;;;;;3.63;2.60;;;13.40;94.10;;;;;;4989304;28;20459;-74
2023/11/03 07:12:05;;;;;;;4.27;2.57;;;13.40;94.10;;;;;;4971038;28;20876;-73
2023/11/03 07:14:34;;;;;;;6.87;3.50;;;13.40;94.20;;;;;;5002197;28;20467;-74
2023/11/03 07:17:00;;;;;;;6.50;3.00;;;13.40;94.20;;;;;;5005773;28;20522;-73
2023/11/03 07:19:28;;;;;;;4.27;2.63;;;13.40;94.10;;;;;;5022446;28;20586;-74
2023/11/03 07:22:04;;;;;;;4.43;3.27;;;13.40;94.20;;;;;;4999429;28;20597;-74
2023/11/03 07:24:30;;;;;;;2.53;2.33;;;13.40;94.20;;;;;;4990441;28;20529;-76
2023/11/03 07:26:56;;;;;;;4.10;2.83;;;13.40;94.20;;;;;;4988361;28;20457;-75
2023/11/03 07:29:22;;;;;;;8.50;2.37;;;13.40;94.20;;;;;;5007060;28;20437;-75
2023/11/03 07:31:48;;;;;;;5.33;2.57;;;13.40;94.20;;;;;;5023150;28;20490;-77
2023/11/03 07:34:14;;;;;;;5.23;2.87;;;13.40;94.20;;;;;;5003244;28;21200;-74
2023/11/03 07:36:43;;;;;;;4.07;2.30;;;13.40;94.20;;;;;;5003058;28;20424;-73
2023/11/03 07:39:22;;;;;;;3.90;3.30;;;13.40;94.20;;;;;;5001013;28;20446;-75
2023/11/03 07:42:15;;;;;;;4.47;3.00;;;13.40;94.20;;;;;;5004521;28;20475;-75
2023/11/03 07:44:42;;;;;;;3.30;2.87;;;13.40;94.20;;;;;;4977409;28;20439;-75
2023/11/03 07:47:08;;;;;;;6.57;3.33;;;13.40;94.20;;;;;;5008939;28;20945;-74
2023/11/03 07:49:36;;;;;;;5.40;3.43;;;13.40;94.20;;;;;;4984146;28;20431;-74
2023/11/03 07:52:03;;;;;;;3.23;2.60;;;13.40;94.20;;;;;;4992515;28;20452;-73
2023/11/03 07:54:29;;;;;;;5.40;2.73;;;13.40;94.20;;;;;;4997923;28;20483;-74
2023/11/03 07:56:56;;;;;;;8.23;3.07;;;13.40;94.20;;;;;;4985367;28;21061;-73
2023/11/03 07:59:23;;;;;;;4.20;2.40;;;13.40;94.20;;;;;;4966679;28;20476;-73
2023/11/03 08:01:49;;;;;;;4.00;2.57;;;13.40;94.10;;;;;;5001041;28;21051;-72
2023/11/03 08:04:19;;;;;;;3.10;2.30;;;13.40;94.10;;;;;;4982301;28;20442;-72
2023/11/03 08:06:48;;;;;;;3.83;2.30;;;13.40;94.20;;;;;;5019095;28;20463;-73
2023/11/03 08:09:14;;;;;;;3.70;2.50;;;13.40;94.20;;;;;;4989319;28;20489;-75
2023/11/03 08:11:43;;;;;;;5.63;2.90;;;13.40;94.20;;;;;;4995131;28;20451;-75
2023/11/03 08:14:11;;;;;;;2.90;2.57;;;13.40;94.20;;;;;;4991192;28;20422;-72
2023/11/03 08:16:45;;;;;;;2.83;2.47;;;13.40;94.20;;;;;;5000117;28;20435;-72
2023/11/03 08:19:13;;;;;;;3.60;2.60;;;13.40;94.20;;;;;;5005437;28;20445;-75
2023/11/03 08:21:42;;;;;;;7.97;2.90;;;13.40;94.30;;;;;;5005434;28;21085;-72
2023/11/03 08:24:11;;;;;;;4.37;2.80;;;13.40;94.30;;;;;;4987694;28;20435;-70
2023/11/03 08:26:41;;;;;;;7.37;2.73;;;13.40;94.30;;;;;;5010831;28;20450;-70
2023/11/03 08:29:09;;;;;;;4.97;2.27;;;13.40;94.60;;;;;;4982876;28;20594;-69
2023/11/03 08:31:36;;;;;;;3.77;2.20;;;13.40;94.30;;;;;;4984742;28;20871;-71
2023/11/03 08:34:06;;;;;;;4.70;2.50;;;13.40;94.30;;;;;;4982326;28;20798;-71
2023/11/03 08:36:32;;;;;;;3.07;2.40;;;13.40;94.30;;;;;;4950756;28;20442;-71
2023/11/03 08:38:59;;;;;;;3.90;2.17;;;13.40;94.40;;;;;;5002222;28;20421;-71
2023/11/03 08:41:29;;;;;;;3.20;2.73;;;13.40;94.40;;;;;;4967273;28;20461;-70
2023/11/03 08:43:55;;;;;;;3.33;2.40;;;13.40;94.40;;;;;;4967160;28;20457;-71
2023/11/03 08:46:21;;;;;;;4.07;2.30;;;13.40;94.30;;;;;;5001391;28;20415;-70
2023/11/03 08:48:47;;;;;;;5.50;3.07;;;13.40;94.40;;;;;;4985255;28;20413;-70
2023/11/03 08:51:16;;;;;;;6.03;2.80;;;13.40;94.40;;;;;;4984739;28;20426;-70
2023/11/03 08:53:44;;;;;;;5.23;2.63;;;13.40;94.50;;;;;;4967338;28;20869;-70
2023/11/03 08:56:13;;;;;;;4.73;2.60;;;13.40;94.50;;;;;;5000778;28;20863;-71
2023/11/03 08:58:47;;;;;;;3.50;2.20;;;13.40;94.40;;;;;;4982788;28;20421;-70
2023/11/03 09:01:13;;;;;;;5.40;2.40;;;13.40;94.80;;;;;;4983458;28;20475;-73
2023/11/03 09:03:40;;;;;;;6.93;2.90;;;13.40;94.50;;;;;;4968322;28;20471;-70
2023/11/03 09:06:07;;;;;;;4.63;2.57;;;13.40;94.50;;;;;;4985708;28;20449;-71
2023/11/03 09:08:33;;;;;;;6.77;2.50;;;13.40;94.50;;;;;;5002658;28;20966;-71
2023/11/03 09:11:00;;;;;;;4.70;2.50;;;13.40;94.50;;;;;;5002295;28;20525;-71
2023/11/03 09:13:26;;;;;;;4.57;2.30;;;13.40;94.50;;;;;;4970042;28;20458;-71
2023/11/03 09:15:53;;;;;;;3.53;2.10;;;13.40;94.50;;;;;;4986294;28;20538;-71
2023/11/03 09:18:23;;;;;;;4.80;2.93;;;13.40;94.50;;;;;;5019245;28;20439;-69
2023/11/03 09:20:49;;;;;;;3.80;2.43;;;13.40;94.50;;;;;;5002921;28;20427;-73
2023/11/03 09:23:15;;;;;;;2.30;2.10;;;13.50;94.50;;;;;;5008040;28;20457;-72
2023/11/03 09:25:46;;;;;;;4.47;2.50;;;13.40;94.50;;;;;;4985618;28;20450;-72
2023/11/03 09:28:16;;;;;;;6.30;2.50;;;13.50;94.60;;;;;;5003892;28;20431;-72
2023/11/03 09:30:44;;;;;;;4.87;2.60;;;13.50;94.60;;;;;;5020371;28;20503;-72
2023/11/03 09:33:13;;;;;;;5.80;2.50;;;13.40;94.60;;;;;;4995383;28;20449;-72
2023/11/03 09:35:44;;;;;;;4.17;2.60;;;13.50;94.70;;;;;;5021926;28;20876;-72
2023/11/03 09:38:10;;;;;;;6.87;2.20;;;13.40;94.60;;;;;;4987830;28;21033;-72
2023/11/03 09:40:39;;;;;;;4.57;2.27;;;13.50;94.60;;;;;;5002952;28;20940;-71
2023/11/03 09:43:05;;;;;;;4.80;2.63;;;13.50;94.70;;;;;;4998957;28;20880;-71
2023/11/03 09:45:37;;;;;;;5.13;2.40;;;13.50;94.70;;;;;;4992094;28;20934;-72
2023/11/03 09:48:08;;;;;;;6.10;2.63;;;13.50;94.70;;;;;;5009412;28;20503;-72
2023/11/03 09:50:37;;;;;;;3.70;2.60;;;13.50;94.60;;;;;;5009498;28;20828;-72
2023/11/03 09:53:11;;;;;;;4.23;2.83;;;13.50;94.60;;;;;;4980490;28;20466;-72
2023/11/03 09:55:42;;;;;;;11.63;2.87;;;13.50;94.70;;;;;;4970577;28;20981;-72
2023/11/03 09:58:12;;;;;;;5.30;3.30;;;13.50;94.70;;;;;;4986218;28;20494;-72
2023/11/03 10:00:40;;;;;;;4.70;3.00;;;13.50;94.70;;;;;;5009713;28;20998;-71
2023/11/03 10:03:07;;;;;;;3.10;2.80;;;13.50;94.70;;;;;;5021099;28;20478;-71
2023/11/03 10:05:38;;;;;;;3.50;2.20;;;13.50;94.70;;;;;;4979280;28;20492;-72
2023/11/03 10:08:17;;;;;;;6.30;3.03;;;13.50;94.70;;;;;;4972854;28;20438;-72
2023/11/03 10:10:46;;;;;;;9.90;2.57;;;13.50;94.60;;;;;;5014738;28;20437;-72
2023/11/03 10:13:16;;;;;;;5.97;2.93;;;13.50;94.70;;;;;;4998294;28;20536;-72
2023/11/03 10:15:44;;;;;;;6.80;2.70;;;13.50;94.70;;;;;;4974077;28;20442;-72
2023/11/03 10:18:15;;;;;;;5.53;2.17;;;13.50;94.70;;;;;;4976847;28;20890;-72
2023/11/03 10:20:46;;;;;;;4.53;2.97;;;13.50;94.70;;;;;;4971078;28;20554;-71
2023/11/03 10:23:13;;;;;;;4.83;2.33;;;13.50;94.80;;;;;;4987184;28;20479;-72
2023/11/03 10:25:44;;;;;;;7.47;2.73;;;13.50;94.70;;;;;;5002813;28;20558;-70
2023/11/03 10:28:14;;;;;;;3.17;2.40;;;13.50;94.70;;;;;;5005814;28;20412;-70
2023/11/03 10:30:40;;;;;;;5.17;3.20;;;13.50;94.70;;;;;;4987661;28;20434;-70
2023/11/03 10:33:07;;;;;;;7.10;3.90;;;13.50;94.70;;;;;;4995538;28;20459;-72
2023/11/03 10:35:36;;;;;;;8.87;2.83;;;13.50;94.60;;;;;;5002857;28;20765;-72
2023/11/03 10:38:05;;;;;;;4.10;2.20;;;13.50;94.50;;;;;;5005626;28;20991;-72
2023/11/03 10:40:35;;;;;;;5.10;2.83;;;13.50;94.50;;;;;;4981869;28;20446;-72
2023/11/03 10:43:10;;;;;;;8.57;2.90;;;13.50;94.40;;;;;;4998002;28;20781;-72
2023/11/03 10:45:38;;;;;;;6.57;2.87;;;13.50;94.40;;;;;;4997289;28;20464;-72
2023/11/03 10:48:22;;;;;;;3.80;2.47;;;13.50;94.40;;;;;;5001817;28;20419;-72
2023/11/03 10:50:59;;;;;;;9.50;2.90;;;13.50;94.40;;;;;;5025327;28;20445;-73
2023/11/03 10:53:35;;;;;;;4.60;2.50;;;13.50;94.80;;;;;;4998920;28;20557;-73
2023/11/03 10:56:05;;;;;;;8.90;3.20;;;13.50;94.40;;;;;;5024228;28;20430;-73
2023/11/03 10:58:32;;;;;;;7.13;2.50;;;13.50;94.40;;;;;;4989236;28;20534;-73
2023/11/03 11:01:08;;;;;;;6.73;2.30;;;13.50;94.50;;;;;;4981795;28;21172;-75
2023/11/03 11:03:40;;;;;;;5.80;2.87;;;13.50;94.50;;;;;;4987151;28;20903;-74
2023/11/03 11:06:29;;;;;;;6.30;2.50;;;13.50;94.50;;;;;;4994615;28;20451;-74
2023/11/03 11:09:27;;;;;;;3.60;2.30;;;13.50;94.50;;;;;;5007267;28;20430;-75
2023/11/03 11:12:02;;;;;;;8.30;2.57;;;13.50;94.50;;;;;;5006679;28;20630;-75
2023/11/03 11:14:33;;;;;;;6.57;2.37;;;13.50;94.50;;;;;;5009520;28;20504;-76
2023/11/03 11:17:00;;;;;;;8.73;2.40;;;13.50;94.40;;;;;;4992545;28;20466;-75
2023/11/03 11:19:49;;;;;;;9.50;3.57;;;13.50;94.40;;;;;;5007407;28;20509;-75
2023/11/03 11:22:18;;;;;;;12.67;2.90;;;13.50;94.30;;;;;;5018486;28;21174;-76
2023/11/03 11:24:45;;;;;;;6.80;3.10;;;13.60;94.30;;;;;;5003867;28;20493;-76
2023/11/03 11:27:25;;;;;;;8.70;2.40;;;13.50;94.50;;;;;;4996700;28;20450;-75
2023/11/03 11:30:12;;;;;;;8.00;3.10;;;13.60;94.10;;;;;;4999127;28;20485;-74
2023/11/03 11:32:38;;;;;;;8.60;3.07;;;13.60;94.00;;;;;;4984328;28;20457;-73
2023/11/03 11:35:10;;;;;;;6.43;2.40;;;13.60;94.00;;;;;;4969520;28;20445;-73
2023/11/03 11:37:46;;;;;;;9.20;2.80;;;13.60;93.90;;;;;;4969413;28;20954;-74
2023/11/03 11:40:13;;;;;;;7.63;3.37;;;13.70;94.10;;;;;;4984800;28;20432;-74
2023/11/03 11:42:52;;;;;;;12.67;2.70;;;13.70;94.10;;;;;;4969051;28;20510;-73
2023/11/03 11:45:21;;;;;;;4.47;2.57;;;13.60;94.00;;;;;;4969926;28;20817;-74
2023/11/03 11:47:50;;;;;;;5.93;2.70;;;13.60;94.10;;;;;;4984913;28;21254;-74
2023/11/03 11:50:28;;;;;;;4.77;2.40;;;13.60;94.00;;;;;;4985093;28;20452;-73
2023/11/03 11:52:54;;;;;;;4.17;3.23;;;13.70;94.10;;;;;;5012647;28;21349;-74
2023/11/03 11:55:22;;;;;;;7.70;2.93;;;13.60;93.90;;;;;;4987111;28;20439;-74
2023/11/03 11:58:10;;;;;;;6.93;2.73;;;13.60;93.70;;;;;;4979954;28;20431;-73
2023/11/03 12:00:38;;;;;;;5.50;2.37;;;13.60;93.70;;;;;;4985971;28;20447;-73
2023/11/03 12:03:07;;;;;;;8.87;3.07;;;13.70;93.80;;;;;;5000746;28;20509;-73
2023/11/03 12:05:40;;;;;;;7.93;2.80;;;13.70;93.70;;;;;;5020189;28;20866;-74
2023/11/03 12:08:09;;;;;;;6.60;2.83;;;13.60;93.70;;;;;;4985555;28;20486;-73
2023/11/03 12:10:53;;;;;;;7.33;2.93;;;13.60;93.90;;;;;;5003766;28;20475;-73
2023/11/03 12:13:22;;;;;;;5.40;2.53;;;13.60;93.90;;;;;;5003558;28;20468;-72
2023/11/03 12:15:50;;;;;;;10.43;2.40;;;13.60;93.80;;;;;;4990651;28;20449;-72
2023/11/03 12:18:20;;;;;;;4.87;2.33;;;13.60;93.70;;;;;;5024114;28;20445;-73
2023/11/03 12:21:02;;;;;;;6.53;2.90;;;13.60;93.70;;;;;;5022588;28;20445;-74
2023/11/03 12:23:35;;;;;;;5.30;2.80;;;13.70;93.70;;;;;;5003607;28;20475;-73
2023/11/03 12:26:04;;;;;;;9.57;2.80;;;13.70;93.50;;;;;;4981592;28;20470;-73
2023/11/03 12:28:35;;;;;;;5.40;2.37;;;13.70;93.60;;;;;;4985496;28;20434;-73
2023/11/03 12:31:04;;;;;;;9.23;2.93;;;13.70;93.80;;;;;;4995529;28;20570;-73
2023/11/03 12:33:48;;;;;;;5.30;2.63;;;13.70;93.80;;;;;;4981155;28;20438;-73
2023/11/03 12:36:34;;;;;;;5.50;2.70;;;13.70;93.80;;;;;;4980463;28;20977;-73
2023/11/03 12:39:08;;;;;;;4.17;2.17;;;13.70;93.70;;;;;;4984955;28;20870;-73
2023/11/03 12:41:38;;;;;;;5.33;2.40;;;13.70;93.60;;;;;;4973947;28;20454;-73
2023/11/03 12:44:06;;;;;;;8.33;2.60;;;13.70;93.50;;;;;;5000754;28;20927;-73
2023/11/03 12:46:45;;;;;;;6.77;2.93;;;13.70;93.50;;;;;;5017986;28;20430;-73
2023/11/03 12:49:21;;;;;;;5.67;2.40;;;13.70;93.50;;;;;;5000534;28;20470;-73
2023/11/03 12:51:47;;;;;;;5.30;2.50;;;13.70;93.40;;;;;;5000932;28;21183;-73
2023/11/03 12:54:24;;;;;;;4.60;2.20;;;13.80;93.60;;;;;;5018498;28;21498;-73
2023/11/03 12:56:50;;;;;;;6.47;2.97;;;13.70;93.30;;;;;;5022393;28;20444;-73